x

8413320 - Bar Harbor, Me (atgm1) Weather Station

8:54 - Mon 20th Apr 2015 All times are EDT. -4 hours from GMT.

  • Wind
    10mph, 17mph gusts
  • Sea Temp 39°f
  • Air Temp 41°f
  • Sea Pressure 1021.1mb
  • 8413320 - Bar Harbor, Me
  • 8413320 - Bar Harbor, Me

More Historic Weather Station data

Upgrade to MSW Pro to gain access to the past 30 days of data for over 8000 Wavebouys and Weather Stations around the globe.

Join Pro

Comparision Forecast

View Surf forecast
   
lun. 04/20 8:54 10 17 mph 1021.1mb 39f 41f
8:48 8 17 mph 1021mb 39f 41f
8:42 9 17 mph 1021mb 39f 41f
8:36 14 18 mph 1021mb 39f 41f
8:30 10 17 mph 1021.1mb 39f 40f
8:24 10 16 mph 1021.1mb 39f 40f
8:18 9 17 mph 1021.1mb 39f 40f
8:12 7 14 mph 1021.1mb 39f 40f
8:06 9 14 mph 1021.1mb 39f 40f
8:00 8 13 mph 1021.2mb 39f 40f
7:54 5 9 mph 1021.3mb 39f 40f
7:48 5 10 mph 1021.1mb 39f 40f
7:42 7 11 mph 1020.9mb 39f 40f
7:36 7 10 mph 1020.9mb 39f 40f
7:30 6 9 mph 1021mb 39f 40f
7:24 3 8 mph 1021mb 39f 40f
7:18 6 11 mph 1021.1mb 39f 40f
7:12 6 11 mph 1021.3mb 39f 40f
7:06 8 14 mph 1021.4mb 39f 40f
7:00 9 13 mph 1021.6mb 39f 40f
6:54 9 14 mph 1021.7mb 39f 40f
6:48 8 10 mph 1021.7mb 39f 40f
6:42 7 10 mph 1021.6mb 39f 40f
6:36 6 10 mph 1021.6mb 39f 40f
6:30 6 8 mph 1021.6mb 39f 40f
6:24 6 9 mph 1021.7mb 39f 40f
6:18 3 9 mph 1021.7mb 39f 40f
6:12 7 11 mph 1021.8mb 39f 40f
6:06 5 10 mph 1021.8mb 39f 40f
6:00 6 13 mph 1021.8mb 39f 40f
5:54 7 11 mph 1021.8mb 39f 40f
5:48 7 14 mph 1021.7mb 39f 40f
5:42 6 13 mph 1021.8mb 39f 40f
5:36 7 11 mph 1021.8mb 39f 40f
5:30 7 14 mph 1022mb 39f 40f
5:24 7 15 mph 1022.2mb 39f 40f
5:18 7 16 mph 1022.1mb 39f 40f
5:12 7 20 mph 1022.2mb 39f 40f
5:06 14 20 mph 1022.2mb 39f 40f
5:00 10 14 mph 1022.4mb 39f 40f
4:54 8 11 mph 1022.6mb 39f 40f
4:48 6 9 mph 1022.9mb 39f 40f
4:42 5 13 mph 1023mb 39f 40f
4:36 10 14 mph 1023.2mb 39f 40f
4:30 10 15 mph 1023.4mb 39f 40f
4:24 9 13 mph 1023.5mb 39f 40f
4:18 10 14 mph 1023.6mb 39f 40f
4:12 8 14 mph 1023.8mb 39f 40f
4:06 10 14 mph 1023.8mb 39f 40f
4:00 13 16 mph 1023.9mb 39f 40f
3:54 11 15 mph 1023.9mb 39f 40f
3:48 9 14 mph 1023.9mb 39f 40f
3:42 9 17 mph 1024mb 39f 40f
3:36 11 17 mph 1023.8mb 38f 40f
3:30 15 18 mph 1023.8mb 38f 40f
3:24 15 20 mph 1023.7mb 38f 40f
3:18 15 18 mph 1023.8mb 38f 40f
3:12 13 17 mph 1023.8mb 39f 40f
3:06 15 20 mph 1023.9mb 39f 40f
3:00 14 18 mph 1024mb 39f 40f
2:54 18 22 mph 1023.8mb 39f 40f
2:48 14 17 mph 1023.8mb 39f 40f
2:42 10 14 mph 1024.3mb 39f 40f
2:36 9 13 mph 1024.7mb 39f 40f
2:30 8 10 mph 1024.7mb 39f 40f
2:24 8 10 mph 1025mb 39f 40f
2:18 7 8 mph 1025.1mb 39f 39f
2:12 8 9 mph 1025.1mb 39f 39f
2:06 7 8 mph 1025.2mb 39f 39f
2:00 7 9 mph 1025.2mb 39f 39f
1:54 9 11 mph 1025.2mb 38f 39f
1:48 9 11 mph 1025.3mb 38f 40f
1:42 8 11 mph 1025.6mb 39f 40f
1:36 8 11 mph 1025.6mb 39f 40f
1:30 10 15 mph 1025.4mb 39f 40f
1:24 10 15 mph 1025.3mb 39f 41f
1:18 11 15 mph 1025.3mb 39f 41f
1:12 11 16 mph 1025.4mb 39f 41f
1:06 11 15 mph 1025.4mb 39f 40f
1:00 10 15 mph 1025.5mb 39f 40f
12:54 11 15 mph 1025.5mb 39f 40f
12:48 11 15 mph 1025.5mb 39f 40f
12:42 11 14 mph 1025.5mb 38f 40f
12:36 10 16 mph 1025.6mb 38f 40f
12:30 11 16 mph 1025.5mb 38f 40f
12:24 11 15 mph 1025.7mb 38f 40f
12:18 10 14 mph 1025.6mb 38f 40f
12:12 10 14 mph 1025.8mb 38f 40f
12:06 11 15 mph 1025.8mb 38f 40f
12:00 11 15 mph 1025.9mb 38f 40f
11:54 11 17 mph 1026mb 38f 40f
11:48 13 16 mph 1026.1mb 38f 41f
11:42 10 16 mph 1026.3mb 38f 41f
11:36 11 17 mph 1026.3mb 38f 41f
11:30 10 16 mph 1026.4mb 38f 42f
11:24 9 16 mph 1026.5mb 38f 42f
11:18 6 13 mph 1026.5mb 38f 43f
11:12 8 13 mph 1026.5mb 38f 43f
11:06 9 15 mph 1026.4mb 38f 42f
11:00 8 14 mph 1026.2mb 38f 43f
10:54 8 13 mph 1026.2mb 38f 43f
10:48 9 13 mph 1026mb 38f 43f
10:42 10 13 mph 1026.1mb 38f 43f
10:36 9 13 mph 1026.1mb 38f 44f
10:30 10 13 mph 1026mb 38f 43f
10:24 10 13 mph 1025.9mb 38f 43f
10:18 10 13 mph 1025.8mb 38f 43f
10:12 9 11 mph 1025.8mb 38f 43f
10:06 9 13 mph 1025.8mb 38f 44f
10:00 9 10 mph 1025.8mb 38f 44f
9:54 8 9 mph 1025.9mb 38f 44f
9:48 7 9 mph 1026mb 38f 44f
9:42 6 8 mph 1025.9mb 38f 44f
9:36 7 9 mph 1025.8mb 38f 42f
9:30 8 10 mph 1025.8mb 38f 41f
9:24 9
mph
1025.7mb 38f 40f
9:18 8 9 mph 1025.8mb 38f 40f
9:12 7 10 mph 1025.7mb 38f 40f
9:06 7 9 mph 1025.9mb 38f 40f
9:00 7 10 mph 1025.8mb 38f 40f
8:54 8 9 mph 1025.9mb 38f 40f
8:48 8 9 mph 1025.9mb 38f 39f
8:42 8
mph
1026.1mb 38f 39f
8:36 6
mph
1026.2mb 38f 39f
8:30 6 7 mph 1026.2mb 38f 38f
8:24 7 8 mph 1026.3mb 38f 38f
8:18 7 8 mph 1026.3mb 38f 38f
8:12 6 7 mph 1026.3mb 38f 38f
8:06 6 7 mph 1026.3mb 38f 38f
8:00 6 7 mph 1026.3mb 38f 39f
7:54 6
mph
1026.3mb 38f 39f
7:48 6 7 mph 1026.2mb 38f 38f
7:42 5 6 mph 1026.2mb 38f 39f
7:36 5 6 mph 1026.1mb 38f 38f
7:30 5
mph
1026mb 38f 38f
7:24 3
mph
1026mb 38f 39f
7:18 2 3 mph 1026mb 38f 39f
7:12 3 5 mph 1026mb 38f 38f
7:06 2 5 mph 1026.1mb 38f 38f
7:00 2 5 mph 1026mb 38f 38f
6:54  -  2 mph 1025.9mb 38f 38f
6:48 1 2 mph 1025.8mb 38f 38f
6:42 2
mph
1025.9mb 38f 38f
6:36 2 3 mph 1025.8mb 38f 38f
6:30  -  2 mph 1025.7mb 38f 38f
6:24 2
mph
1025.7mb 38f 37f
6:18  -  2 mph 1025.6mb 38f 37f
6:12 2
mph
1025.7mb 38f 37f
6:06  -  2 mph 1025.5mb 38f 37f
6:00  -  1 mph 1025.5mb 38f 37f
5:54  -  2 mph 1025.4mb 38f 37f
5:42 1 2 mph 1025.2mb - -
5:36  -  2 mph 1025mb - -
5:30  -  1 mph 1025mb 38f 37f
5:24 1 2 mph 1025mb 38f 37f
5:18  -  mph 1025mb 38f 37f
5:12  -  1 mph 1024.9mb 38f 37f
5:06  -  mph 1024.9mb 38f 38f
5:00  -  2 mph 1024.9mb 38f 38f
4:54 2 3 mph 1024.9mb 38f 38f
4:48  -  1 mph 1024.9mb 38f 38f
4:42  -  mph 1024.8mb 38f 38f
4:36  -  1 mph 1024.9mb 38f 38f
4:30 2 6 mph 1024.8mb 38f 39f
4:24 2 3 mph 1024.8mb 38f 39f
4:18 2 3 mph 1024.9mb 38f 39f
4:12 3
mph
1024.8mb 38f 40f
4:06 2 3 mph 1024.7mb 38f 39f
4:00 2 6 mph 1024.7mb 38f 40f
3:54 3 6 mph 1024.6mb 38f 40f
3:48 2 6 mph 1024.7mb 38f 41f
3:42 5 7 mph 1024.6mb 38f 40f
3:36 2 3 mph 1024.7mb 38f 40f
3:30 2 3 mph 1024.7mb 38f 39f
3:24 1 2 mph 1024.7mb 38f 39f
3:18  -  3 mph 1024.6mb 38f 38f
3:12 2 3 mph 1024.7mb 38f 38f
3:06 2 6 mph 1024.6mb 38f 38f
3:00 3 6 mph 1024.6mb 38f 38f
2:54 5 8 mph 1024.5mb 38f 38f
2:48 7 11 mph 1024.3mb - 41f
2:42  -  6 mph 1024.3mb - 40f
2:36 5 7 mph 1024.3mb - 40f
2:30 3 5 mph 1024.3mb 38f 39f
2:24 3 6 mph 1024.3mb 38f 38f
2:18 2 3 mph 1024.3mb 38f 39f
2:12 2 3 mph 1024.4mb 38f 39f
2:06  -  1 mph 1024.4mb 38f 39f
2:00 1 2 mph 1024.4mb 38f 39f
1:54  -  3 mph 1024.5mb 38f 39f
1:48 2 6 mph 1024.4mb 38f 38f
1:42 3 5 mph 1024.4mb 38f 39f
1:36  -  2 mph 1024.3mb 38f 39f
1:30 1 2 mph 1024.3mb 38f 40f
1:24 2 3 mph 1024.2mb 38f 39f
1:18 2 5 mph 1024.3mb 38f 40f
1:12 3 6 mph 1024.3mb 38f 40f
1:06 2 5 mph 1024.1mb 38f 40f
1:00 3 7 mph 1024.2mb 38f 41f
12:54 5 13 mph 1024.2mb 38f 41f
12:48 3 10 mph 1024.1mb 38f 42f
12:42 3 9 mph 1024.1mb 38f 43f
12:36 6 9 mph 1024.1mb 38f 43f
12:30 3 15 mph 1024.1mb 38f 43f
12:24 5 9 mph 1024.1mb 38f 43f
12:18 5 10 mph 1024.1mb 37f 43f
12:12 2 7 mph 1024.2mb 37f 42f
12:06 5 10 mph 1024.3mb 37f 42f
12:00 6 10 mph 1024.3mb 37f 42f
dim. 04/19 11:54 5 10 mph 1024.2mb 37f 42f
11:48 6 10 mph 1024.2mb 37f 42f
11:42 5 13 mph 1024.3mb 37f 42f
11:30 9 16 mph 1024.2mb 38f 42f
11:24 6 10 mph 1024.3mb 38f 42f
11:12  -  1 mph 1024.3mb 37f 40f
11:06  -  1 mph 1024.2mb 37f 40f
10:54 1 2 mph 1024mb 37f 40f
10:48 1 2 mph 1024.2mb 37f 40f
10:42 2 5 mph 1024.2mb 37f 40f
10:36 3 6 mph 1024.2mb 37f 40f
10:30 3 5 mph 1024.3mb 37f 40f
10:24 3 6 mph 1024.4mb 37f 40f
10:18 3 7 mph 1024.3mb 37f 41f
10:12 5 6 mph 1024.4mb 37f 41f
10:06 3 6 mph 1024.4mb 37f 42f
10:00 6 11 mph 1024.3mb 37f 43f
9:54 3 10 mph 1024.3mb 38f 43f
9:48 2 7 mph 1024.4mb 38f 43f
9:42 2 6 mph 1024.6mb 38f 42f
9:36 3 7 mph 1024.6mb 37f 43f
9:30 5 8 mph 1024.6mb 37f 43f
9:24 3 7 mph 1024.6mb 37f 43f
9:18 5 11 mph 1024.5mb 38f 44f
9:12 8 18 mph 1024.3mb 38f 44f
9:06 11 18 mph 1024.3mb 38f 44f
9:00 13 17 mph 1024mb 38f 44f
8:54 14 16 mph 1023.8mb 38f 44f
8:48 13 21 mph 1023.9mb 38f 43f
8:42 14 21 mph 1024mb 38f 44f
8:36 14 20 mph 1024.1mb 38f 44f
8:30 15 21 mph 1023.9mb 38f 44f
8:24 14 20 mph 1023.8mb 38f 44f
8:18 14 17 mph 1023.9mb - -
8:12 10 17 mph 1023.7mb 38f 45f
8:06 10 14 mph 1023.6mb 38f 45f
8:00 11 15 mph 1023.5mb 38f 45f
7:54 10 17 mph 1023.4mb 38f 45f
7:48 11 16 mph 1023.3mb 38f 46f
7:42 11 17 mph 1023.2mb 38f 46f
7:36 11 17 mph 1023mb 38f 46f
7:30 9 16 mph 1022.9mb 39f 46f
7:24 11 16 mph 1022.8mb 39f 46f
7:18 10 17 mph 1022.8mb 39f 46f
7:12 10 15 mph 1022.6mb 39f 46f
7:06 11 17 mph 1022.5mb 39f 46f
7:00 11 17 mph 1022.5mb 39f 46f
6:54 11 17 mph 1022.4mb 39f 47f
6:48 13 18 mph 1022.3mb 39f 47f
6:42 9 15 mph 1022.2mb 39f 47f
6:36 9 17 mph 1022.1mb 39f 47f
6:30 10 18 mph 1022mb 39f 47f
6:24 14 18 mph 1021.9mb 39f 48f
6:18 8 18 mph 1021.8mb 39f 48f
6:12 11 18 mph 1021.9mb 40f 49f
6:06 11 16 mph 1021.9mb 40f 49f
6:00 10 16 mph 1021.8mb 40f 49f
5:54 9 14 mph 1021.8mb 40f 50f
5:48 11 16 mph 1021.8mb 40f 50f
5:42 7 14 mph 1021.8mb 40f 51f
5:36 8 10 mph 1021.8mb 40f 51f
5:30 7 14 mph 1021.8mb 40f 51f
5:24 6 10 mph 1021.7mb 40f 50f
5:12 5 10 mph 1021.6mb 40f 50f
5:06 6 11 mph 1021.6mb 40f 51f
5:00 7 13 mph 1021.7mb 40f 51f
4:54 6 10 mph 1021.6mb 40f 52f
4:48 6 14 mph 1021.6mb 40f 51f
4:42 6 9 mph 1021.7mb 40f 51f
4:36 6 8 mph 1021.8mb 40f 52f
4:30 7 9 mph 1021.8mb 40f 50f
4:24 6 9 mph 1021.8mb 39f 50f
4:18 5 10 mph 1021.8mb 39f 50f
4:12 8 10 mph 1021.8mb 39f 49f
4:06 7 11 mph 1021.7mb 39f 50f
4:00 8 10 mph 1021.8mb 39f 50f
3:54 7 10 mph 1021.7mb 39f 51f
3:48 7 9 mph 1021.8mb 39f 51f
3:42 6 11 mph 1021.8mb 39f 50f
3:36 5 9 mph 1021.9mb 39f 50f
3:30 6 7 mph 1022mb 39f 49f
3:24 5 8 mph 1022.1mb 39f 49f
3:18 6 8 mph 1022.2mb 39f 47f
3:12 7 8 mph 1022.2mb 39f 47f
3:00 6 7 mph 1022.3mb 38f 47f
2:54 5 7 mph 1022.5mb 38f 48f
2:48 7 9 mph 1022.6mb 38f 46f
2:42 5 6 mph 1022.6mb 38f 46f
2:36 2 6 mph 1022.7mb 38f 47f
2:30 5 7 mph 1022.8mb 38f 47f
2:24 7 9 mph 1022.8mb 38f 44f
2:18 8 10 mph 1022.8mb 38f 45f
2:12 6 10 mph 1022.9mb 38f 46f
2:06 6 10 mph 1023mb 38f 45f
2:00 9 11 mph 1023mb 38f 43f
1:54 8 9 mph 1023.1mb 38f 43f
1:48 10 11 mph 1023.1mb 38f 42f
1:42 8 10 mph 1023.2mb 38f 42f
1:36 10 11 mph 1023.2mb 38f 42f
1:30 8 10 mph 1023.3mb 38f 43f
1:24 8 10 mph 1023.4mb 38f 42f
1:18 8 10 mph 1023.4mb 38f 42f
1:12 6 7 mph 1023.4mb 38f 42f
1:06 7 9 mph 1023.3mb 38f 42f
1:00 8 10 mph 1023.3mb 38f 42f
12:54 8 9 mph 1023.2mb 38f 41f
12:48 6 7 mph 1023.4mb 38f 42f
12:42 6 8 mph 1023.3mb 38f 42f
12:36 6 7 mph 1023.3mb 39f 42f
12:30 1 6 mph 1023.5mb 38f 44f
12:24 5 6 mph 1023.5mb 38f 42f
12:18 3 5 mph 1023.5mb 38f 43f
12:12 3 6 mph 1023.7mb 38f 43f
12:06 3 7 mph 1023.6mb 38f 42f
12:00 7 8 mph 1023.6mb 38f 41f
11:54  -  3 mph 1023.6mb 38f 44f
11:48 2 5 mph 1023.7mb 38f 43f
11:42 3 6 mph 1023.7mb 38f 44f
11:36 3 7 mph 1023.6mb 38f 44f
11:30 2 6 mph 1023.7mb 38f 43f
11:24 3 5 mph 1023.7mb 38f 43f
11:18 1 3 mph 1023.7mb 38f 43f
11:12 3
mph
1023.7mb 38f 42f
11:06 3 5 mph 1023.8mb 38f 42f
11:00 3
mph
1023.8mb 38f 43f
10:54 3
mph
1023.7mb 38f 43f
10:48 1 2 mph 1023.8mb 38f -
10:36  -  2 mph 1023.8mb 38f 42f
10:30  -  2 mph 1023.8mb 38f 42f
10:18 2 3 mph 1023.7mb 38f 41f
10:12 2 3 mph 1023.7mb 38f 40f
10:06 2 3 mph 1023.6mb 38f 41f
10:00 2 3 mph 1023.7mb 38f 40f
9:54 2
mph
1023.7mb 38f 40f
9:48 2 3 mph 1023.7mb 38f 40f
9:42 2 3 mph 1023.7mb 38f 40f
9:36 2
mph
1023.7mb 38f 40f
9:30 2 3 mph 1023.8mb 38f 39f
9:24 3 5 mph 1023.7mb 38f 39f
9:18 1 2 mph 1023.8mb 38f 40f
9:12 2
mph
1023.8mb 38f 39f
9:06  -  2 mph 1023.8mb 38f 40f
9:00 2 3 mph 1023.9mb 38f 38f
8:54  -  2 mph 1023.8mb 38f 40f
8:48 2 3 mph 1023.8mb 38f 38f
8:42 3
mph
1023.7mb 38f 38f
8:36 2 3 mph 1023.8mb 38f 38f
8:30 3 5 mph 1023.6mb 38f 38f
8:24 5 6 mph 1023.5mb 38f 37f
8:18 6 7 mph 1023.4mb 38f 37f
8:12 7 8 mph 1023.3mb 38f 37f
8:06 6 8 mph 1023.2mb 38f 37f
8:00 6 7 mph 1023.2mb 38f 37f
7:54 6 7 mph 1023.3mb 38f 38f
7:48 6 7 mph 1023.2mb 38f 38f
7:42 6 7 mph 1023.2mb 38f 38f
7:36 2 6 mph 1023.2mb 38f 38f
7:30 3 6 mph 1023mb 38f 38f
7:24 3 5 mph 1023mb 38f 38f
7:18 3 6 mph 1022.9mb 38f 37f
7:12 3 5 mph 1022.9mb 38f 37f
7:06 1 3 mph 1022.8mb 38f 37f
6:54 6 8 mph 1022.7mb 38f 37f
6:48 6 7 mph 1022.6mb 38f 37f
6:42 6 7 mph 1022.5mb 38f 37f
6:36 6 7 mph 1022.4mb 38f 37f
6:30 5 6 mph 1022.3mb 38f 37f
6:24 3 5 mph 1022.2mb 38f 37f
6:18 3 6 mph 1022mb 38f 37f
6:12 3 6 mph 1021.8mb 38f 37f
6:06 5 7 mph 1021.7mb 38f 37f
6:00 6 7 mph 1021.5mb 38f 37f
5:54 6 7 mph 1021.3mb 38f 37f
5:42 6 8 mph 1021.1mb 38f 37f
5:36 6 8 mph 1020.9mb 38f 37f
5:30 7 8 mph 1020.7mb 38f 37f
5:24 5 6 mph 1020.7mb 38f 37f
5:18 3 5 mph 1020.5mb 38f 37f
5:12 3 6 mph 1020.4mb 38f 37f
5:06 3 6 mph 1020.3mb 38f 37f
5:00 5 6 mph 1020.2mb 38f 37f
4:54 2 5 mph 1020.2mb 38f 37f
4:48 3 6 mph 1020.1mb 38f 37f
4:42 7 8 mph 1020mb 38f 37f
4:36 6 8 mph 1019.9mb 39f 37f
4:30 8 9 mph 1019.7mb 39f 37f
4:24 8 10 mph 1019.4mb 39f 37f
4:18 10 14 mph 1019.3mb 39f 37f
4:12 9 10 mph 1019.3mb 38f 38f
4:06 8 9 mph 1019.2mb 38f 38f
4:00 5 6 mph 1019.1mb 38f 38f
3:54 3
mph
1019.1mb 38f 38f
3:48  -  1 mph 1018.9mb 38f 38f
3:42 2 3 mph 1018.8mb 38f 38f
3:36 2 6 mph 1018.7mb 38f 38f
3:30 6 9 mph 1018.6mb 38f 38f
3:24 6 9 mph 1018.5mb 38f 39f
3:18 6 7 mph 1018.4mb 38f 38f
3:12 5 8 mph 1018.3mb 38f 39f
3:06 6 7 mph 1018.2mb 38f 39f
3:00 3 6 mph 1018.1mb 38f 39f
2:54 2 3 mph 1018mb 38f 39f
2:42 1 2 mph 1017.9mb 38f -
2:30 5 6 mph 1017.7mb 38f 39f
2:18 5
mph
1017.6mb 38f 39f
2:12  -  mph - - 39f
1:54 7 8 mph 1017.3mb 38f 39f
1:48 7
mph
1017.3mb 38f 39f
1:42 3 5 mph 1017.3mb 38f 39f
1:36 2 3 mph 1017.2mb 38f 39f
1:30 3 5 mph 1017.2mb 38f 39f
1:24 5
mph
1017.2mb 38f 39f
1:18 3 5 mph 1017.2mb 38f 38f
1:12 3
mph
1017.1mb 38f 38f
1:06 2
mph
1017.1mb 38f 39f
1:00 2 3 mph 1017.1mb 38f 39f
12:54 2 3 mph 1017mb 38f 39f
12:48 2
mph
- - -
12:42 1 2 mph 1016.9mb 38f 38f
12:36 2
mph
1016.8mb 38f 39f
12:30 3
mph
1016.9mb 38f 39f
12:24 2 3 mph 1016.8mb 39f 39f
12:18 3 6 mph 1016.8mb - -
12:12 6
mph
1016.8mb 39f 39f
12:06 6 7 mph 1016.8mb 38f 39f
12:00 6 8 mph 1016.8mb 39f 39f
sam. 04/18 11:54 7 10 mph 1016.8mb 39f 39f
11:48 9
mph
1016.9mb 39f 39f
11:42 8 11 mph 1016.9mb 39f 39f
11:36 9 11 mph 1016.9mb 39f 39f
11:30 8 9 mph 1016.8mb 39f 40f
11:24 6 8 mph 1016.6mb 39f 40f
11:18 6 8 mph 1016.6mb 39f 40f
11:12 7 9 mph 1016.5mb 39f 40f
11:06 8 9 mph 1016.4mb 39f 40f
11:00 8 9 mph 1016.4mb 38f 40f
10:54 8 10 mph 1016.4mb 38f 40f
10:48 9 11 mph 1016.3mb 38f 39f
10:42 9 10 mph 1016.3mb 38f 39f
10:36 9 10 mph 1016.2mb 38f 39f
10:30 8 10 mph 1016.2mb 38f 39f
10:24 10
mph
1016.2mb 38f 39f
10:18 9 10 mph 1016.1mb 38f 39f
10:12 8 10 mph 1015.9mb 38f 39f
10:06 8 9 mph 1015.9mb 37f 39f
10:00 8 13 mph 1015.9mb 37f 39f
9:48 8 10 mph 1015.9mb 38f 40f
9:42 7 9 mph 1015.9mb 38f 40f
9:36 2 3 mph 1015.8mb 38f 40f
9:30 2 7 mph 1015.7mb 38f 40f
9:24 5 8 mph 1015.5mb 38f 40f
9:18 6 9 mph 1015.5mb 38f 40f
9:12 8 11 mph 1015.4mb 38f 40f
9:06 9 14 mph 1015.4mb 38f 39f
9:00 7 13 mph 1015.5mb 38f 39f
8:54 8 15 mph 1015.5mb 38f 39f
8:48 11 16 mph 1015.5mb 38f 39f
8:42 9 15 mph 1015.5mb 38f 40f
8:36 10 14 mph 1015.6mb 38f 40f
8:30 10 14 mph 1015.5mb 38f 40f
8:24 9 16 mph 1015.5mb 38f 40f
8:18 8 14 mph 1015.3mb 38f 41f
8:12 9 14 mph 1015.2mb 38f 41f
8:06 7 13 mph 1015.1mb 38f 41f
8:00 7 11 mph 1014.9mb 38f 41f
7:54 7 10 mph 1014.8mb 39f 41f
7:48 7 13 mph 1014.8mb 39f 42f
7:42 11 16 mph 1014.8mb 39f 42f
7:36 13 17 mph 1014.7mb 39f 43f
7:30 9 16 mph 1014.6mb 39f 44f
7:24 9 11 mph 1014.5mb 39f 43f
7:18 8 9 mph 1014.5mb 39f 43f
7:12 2 6 mph 1014.3mb 39f 42f
7:06  -  5 mph 1014.1mb 39f 44f
7:00 3 6 mph 1014.2mb 39f 44f
6:54  -  2 mph 1014.2mb 39f 43f
6:48  -  3 mph 1014.1mb 39f 42f
6:42 2 6 mph 1013.9mb 39f 42f
6:36 5 7 mph 1013.6mb 39f 42f
6:30 3 7 mph 1013.3mb 39f 41f
6:24 8 10 mph 1012.9mb 39f 41f
6:18 6 9 mph 1012.7mb 40f 41f
6:12 5 8 mph 1012.5mb 40f 41f
6:06 7 10 mph 1012.4mb 40f 41f
6:00 6 10 mph 1012.3mb 40f 41f
5:54 9 10 mph 1012.1mb 40f 41f
5:48 7 11 mph 1012.1mb 40f 41f
5:42 9 10 mph 1012.1mb 40f 41f
5:36 9 14 mph 1012.1mb 40f 41f
5:30 10 15 mph 1012.2mb 40f 42f
5:24 9 13 mph 1012.2mb 40f 42f
5:18 9 13 mph 1012.2mb 40f 42f
5:12 10 13 mph 1012.1mb 40f 42f
5:06 10 14 mph 1012.2mb 40f 42f
5:00 10 14 mph 1012.2mb 40f 42f
4:54 10 14 mph 1012.2mb 40f 42f
4:48 8 13 mph 1012.1mb 40f 42f
4:42 11 16 mph 1011.9mb 40f 42f
4:36 11 16 mph 1011.7mb 40f 42f
4:30 13 17 mph 1011.8mb 40f 42f
4:24 11 18 mph 1011.8mb 40f 42f
4:18 14 20 mph 1012mb 40f 43f
4:12 14 20 mph 1011.9mb 40f 43f
4:06 13 18 mph 1012mb 40f 43f
4:00 14 20 mph 1012mb 40f 43f
3:54 16 22 mph 1011.9mb 40f 43f
3:48 14 18 mph 1011.9mb 40f 43f
3:42 16 21 mph 1012.1mb 40f 43f
3:36 15 20 mph 1012.1mb 40f 43f
3:30 13 21 mph 1012.3mb 40f 44f
3:24 14 20 mph 1012.3mb 39f 44f
3:18 14 18 mph 1012.4mb 39f 44f
3:12 14 18 mph 1012.3mb 39f 45f
2:54 9 18 mph 1012.5mb 39f 46f
2:48 17 21 mph 1012.5mb 39f 44f
2:42 14 17 mph 1012.6mb 39f 44f
2:36 15 23 mph 1012.7mb 39f 43f
2:30 17 23 mph 1012.8mb 39f 44f
2:24 15 21 mph 1012.8mb 39f 46f
2:18 15 18 mph 1012.9mb 39f 45f
2:12 15 22 mph 1012.9mb 39f 44f
2:06 16 20 mph 1013mb 39f 43f
2:00 13 18 mph 1012.9mb 38f 44f
1:54 15 18 mph 1012.9mb 38f 44f
1:48 15 18 mph 1013.1mb 38f 45f
1:42 14 20 mph 1013.1mb 38f 45f
1:36 15 18 mph 1013.2mb 38f 44f
1:30 13 16 mph 1013.3mb 38f 46f
1:24 15 18 mph 1013.4mb 38f 45f
1:18 14 17 mph 1013.5mb 38f 44f
1:12 15 16 mph 1013.4mb 38f 42f
1:06 13 15 mph 1013.5mb 38f 45f
1:00 10 14 mph 1013.5mb 38f 46f
12:54 13 15 mph 1013.6mb 38f 44f
12:48 13 16 mph 1013.6mb 38f 46f
12:42 13 15 mph 1013.7mb 38f 45f
12:36 8 10 mph 1013.6mb 38f 46f
12:30 8 11 mph 1013.8mb 38f 46f
12:24 8 11 mph 1013.8mb 38f 45f
12:18 5
mph
1013.9mb 38f 49f
12:12 3 5 mph 1013.9mb 38f 49f
12:06 5
mph
1013.9mb 38f 49f
12:00 3 6 mph 1013.8mb 38f 48f
11:54 5 6 mph 1013.8mb 38f 48f
11:48  -  2 mph 1013.9mb 38f -
11:42 2 3 mph 1014.1mb 38f 49f
11:36 3 5 mph 1014.2mb 39f 49f
11:30 2 3 mph 1014.3mb 39f 48f
11:24 1 3 mph 1014.5mb 38f 48f
11:18 2 3 mph 1014.5mb 38f 47f
11:12 2 3 mph 1014.5mb 38f 47f
11:06 1 2 mph 1014.4mb 38f 47f
11:00 3 5 mph 1014.5mb 38f 47f
10:54 5
mph
1014.5mb 38f 46f
10:48  -  2 mph 1014.5mb 38f 47f
10:42  -  3 mph 1014.3mb 38f 47f
10:36 1 2 mph 1014.3mb 38f 46f
10:30  -  1 mph - - -
10:24  -  2 mph 1014.3mb 38f 47f
10:18 2 5 mph 1014.4mb 38f 46f
10:12 2 5 mph 1014.4mb 38f 45f
10:06 5 7 mph 1014.3mb 38f 45f
10:00 6 8 mph 1014.2mb 38f 44f
9:54 5 7 mph 1014.2mb 38f 44f
9:48 6 8 mph 1014.3mb 38f 44f
9:42 6 7 mph 1014.3mb 38f 44f
9:36 3 5 mph 1014.2mb 38f 44f
9:30 1 3 mph 1014.2mb 38f 44f
9:24 2 6 mph 1014.2mb 38f 44f
9:18 5 10 mph 1014.1mb 38f 43f
9:12 7 11 mph 1014mb 38f 43f
9:06 8 10 mph 1014mb 38f 43f
9:00 9 10 mph 1014.1mb 38f 42f
8:54 9 10 mph 1014.2mb 38f 42f
8:48 8 10 mph 1014.2mb 38f 42f
8:42 8 10 mph 1014.3mb 38f 42f
8:36 7 9 mph 1014.3mb 38f 42f
8:30 2 6 mph 1014.3mb 38f 42f
8:24 3 5 mph 1014.3mb 38f 42f
8:18  -  5 mph 1014.3mb 38f 42f
8:12 3 7 mph 1014.2mb 38f 42f
8:06 3 7 mph 1014.3mb 38f 42f
8:00 5 8 mph 1014.3mb 38f 41f
7:54 6 7 mph 1014.4mb 38f 41f
7:48 6 8 mph 1014.3mb 38f 41f
7:42 5 8 mph 1014.4mb 38f 41f
7:36 6 8 mph 1014.4mb 38f 41f
7:30 5 7 mph 1014.3mb 38f 41f
7:24 5 8 mph 1014.3mb 38f 42f
7:18 6 9 mph 1014.3mb 38f 42f
7:12 7 11 mph 1014.2mb 38f 42f
7:06 7 10 mph 1014.2mb 38f 42f
7:00 6 7 mph 1014.3mb 38f 41f
6:54 5 6 mph 1014.3mb 38f 41f
6:48 3 5 mph 1014.3mb 38f 42f
6:42 3 5 mph 1014.2mb 38f 42f
6:36 2 3 mph 1014.1mb 38f 43f
6:30 3 5 mph 1014mb 38f 43f
6:24 2 5 mph 1014mb 38f 43f
6:18 5 7 mph 1013.9mb 38f 42f
6:12 5 7 mph 1013.8mb 38f 42f
6:06 6 7 mph 1013.7mb 38f 42f
6:00 7 8 mph 1013.6mb 38f 42f
5:54 5 6 mph 1013.6mb 38f 42f
5:48 5 7 mph 1013.4mb 38f 42f
5:36 8 11 mph 1013.2mb 38f 42f
5:30 9 10 mph 1013.2mb 38f 42f
5:24 10 11 mph 1013.1mb 38f 43f
5:18 10 11 mph 1013.1mb 38f 43f
5:12 10 11 mph 1012.9mb 38f 43f
5:06 10 11 mph 1012.9mb 38f 44f
5:00 11
mph
1012.8mb 38f 44f
4:54 10 11 mph 1012.7mb 38f 44f
4:48 9 10 mph - - -
4:42 9 11 mph 1012.5mb 38f 44f
4:36 9 14 mph 1012.4mb 38f 44f
4:30 10 13 mph 1012.2mb 38f 44f
4:24 11 13 mph 1012.1mb 38f 44f
4:18 10 13 mph - - -
4:12 11 13 mph 1011.9mb 38f 46f
4:06 8 9 mph 1011.8mb 38f 45f
4:00 8 14 mph 1011.8mb 38f 45f
3:54 9 11 mph 1011.7mb 39f 46f
3:48 7 9 mph 1011.6mb 39f 45f
3:42 8 9 mph 1011.5mb 39f 46f
3:36 7 10 mph 1011.3mb 39f 44f
3:30 10 11 mph 1011.2mb 39f 47f
3:24 10 11 mph 1011.1mb 39f 47f
3:18 7 8 mph 1011mb 39f 47f
3:12 5 7 mph 1010.8mb 39f 47f
3:06 6 8 mph 1010.8mb 39f 48f
3:00 8 10 mph 1010.9mb 39f 48f
2:48 10 13 mph 1010.6mb 39f 48f
2:42 13 14 mph 1010.6mb 39f 49f
2:24 13 18 mph 1010.3mb 39f 51f
2:12 15 17 mph 1010.2mb 38f 51f
1:54 13 17 mph 1009.9mb 38f 53f
1:48 14 17 mph 1009.7mb 38f 54f
1:42 14 22 mph 1009.6mb 38f 55f
1:30 14 20 mph 1009.5mb 38f 55f
1:24 13 18 mph 1009.4mb 38f 55f
1:18 14 18 mph 1009.4mb 38f 56f
1:12 15 20 mph 1009.3mb 38f 56f
1:06 14 17 mph 1009.3mb 38f 56f
1:00 14 18 mph 1009.2mb 38f 56f
12:54 14 20 mph 1009.3mb 38f 56f
12:48 14 18 mph 1009.2mb 38f 56f
12:36 13 20 mph 1009mb 38f 56f
12:30 11 17 mph 1009mb 38f 56f
12:24 11 16 mph 1009mb 38f 56f
12:18 14 21 mph 1008.9mb 38f 56f
12:12 13 17 mph 1008.8mb 38f 56f
ven. 04/17 11:54 11 16 mph 1008.8mb 38f 55f
11:48 13 16 mph 1008.7mb 38f 56f
11:42 10 16 mph 1008.7mb 38f 56f
11:36 13 20 mph 1008.6mb 38f 57f
11:30 10 15 mph 1008.6mb 38f 56f
11:24 10 15 mph 1008.6mb 38f 56f
11:18 11 18 mph 1008.5mb 38f 56f
11:12 14 18 mph 1008.6mb 38f 56f
11:06 13 16 mph 1008.5mb 38f 55f
11:00 13 18 mph 1008.6mb 38f 55f
10:54 13 18 mph 1008.5mb 38f 55f
10:48 13 16 mph 1008.5mb 38f 55f
10:42 13 17 mph 1008.7mb 38f 55f
10:36 11 18 mph 1008.7mb 38f 54f
10:30 13 16 mph 1008.7mb 38f 54f
10:24 13 17 mph 1008.6mb 38f 54f
10:18 13 17 mph 1008.6mb 38f 55f
10:12 13 17 mph 1008.5mb 38f 55f
10:06 14 18 mph 1008.5mb 38f 55f
10:00 13 16 mph 1008.5mb 38f 55f
9:54 11 18 mph 1008.5mb 38f 55f
9:48 13 20 mph 1008.5mb 38f 55f
9:42 13 17 mph 1008.4mb 38f 55f
9:36 13 18 mph 1008.5mb 38f 55f
9:30 13 18 mph 1008.5mb 38f 56f
9:24 13 17 mph 1008.5mb 38f 56f
9:18 13 18 mph 1008.5mb 38f 56f
9:12 13 18 mph 1008.5mb 38f 56f
9:06 11 16 mph 1008.4mb 38f 55f
9:00 11 15 mph 1008.3mb 38f 55f
8:54 13 18 mph 1008.2mb 37f 55f
8:48 13 16 mph 1008.2mb 37f 55f
8:42 14 18 mph 1008.2mb 37f 55f
8:36 13 17 mph 1008.2mb 37f 55f
8:30 13 18 mph 1008.2mb 37f 55f
8:24 14 17 mph 1008.2mb 37f 55f
8:18 13 16 mph 1008.1mb 38f 55f
8:12 13 17 mph 1008mb 38f 55f
8:06 13 17 mph 1008mb 37f 55f
8:00 13 17 mph 1007.9mb 37f 55f
7:54 13 17 mph 1007.8mb 37f 55f
7:48 10 17 mph 1007.7mb 37f 55f
7:42 10 15 mph 1007.6mb 37f 55f
7:36 11 15 mph 1007.4mb 37f 55f
7:30 10 14 mph 1007.3mb 37f 55f
7:24 10 14 mph 1007.4mb 37f 56f
7:18 9 15 mph 1007.3mb 37f 56f
7:12 10 15 mph 1007.3mb 38f 56f
7:06 11 15 mph 1007.3mb 38f 56f
7:00 11 16 mph 1007.3mb 38f 56f
6:54 10 18 mph 1007.3mb 38f 57f
6:48 13 16 mph 1007.3mb 38f 57f
6:42 9 13 mph 1007.3mb 38f 58f
6:36 13 16 mph 1007.3mb 38f 57f
6:30 8 16 mph 1007.3mb 38f 57f
6:24 11 17 mph 1007.3mb 38f 57f
6:18 11 16 mph 1007.4mb 38f -
6:12 11 16 mph 1007.4mb 38f 58f
6:00 9 14 mph 1007.5mb 38f 58f
5:54 8 11 mph 1007.5mb 38f 58f
5:48 7 10 mph 1007.5mb 38f 58f
5:42 6 13 mph 1007.5mb 38f 58f
5:36 7 10 mph 1007.4mb 38f 58f
5:30 6 11 mph 1007.4mb 38f 58f
5:24 9 11 mph 1007.4mb 38f 58f
5:18 6 13 mph 1007.3mb 38f 58f
5:12 9 10 mph 1007.3mb 38f 59f
5:06 6 10 mph 1007.3mb 38f 59f
5:00 8 11 mph 1007.3mb 38f 59f
4:54 6 10 mph 1007.3mb 38f 59f
4:36 10 14 mph 1007.4mb 38f 58f
4:30 8 14 mph 1007.4mb 38f 58f
4:24 9 14 mph 1007.4mb 38f 58f
4:18 8 15 mph 1007.5mb 38f 57f
4:12 9 15 mph 1007.5mb 38f 57f
4:06 11 17 mph 1007.6mb 38f 57f
4:00 9 15 mph 1007.5mb 38f 57f
3:54 8 15 mph 1007.8mb 38f 56f
3:48 11 17 mph 1007.8mb 38f 56f
3:42 10 17 mph 1007.9mb 38f 56f
3:36 8 14 mph 1008mb 37f 56f
3:30 10 16 mph 1008mb 37f 56f
3:24 9 14 mph 1008.2mb 37f 56f
3:18 8 14 mph 1008.2mb 37f 56f
3:12 9 13 mph 1008.3mb 37f 55f
3:06 13 16 mph 1008.3mb 37f 55f
3:00 9 14 mph 1008.5mb 37f 55f
2:54 10 18 mph 1008.5mb 37f 55f
2:48 10 15 mph 1008.6mb 37f 55f
2:42 14 16 mph 1008.8mb 37f 54f
2:36 13 17 mph 1008.9mb 37f 54f
2:30 11 16 mph 1009mb 37f 54f
2:24 10 18 mph 1009.1mb 37f 54f
2:18 10 18 mph 1009.3mb 37f 54f
2:12 11 17 mph 1009.4mb 37f 54f
2:06 11 18 mph 1009.6mb 37f 53f
2:00 13 15 mph 1009.6mb 37f 53f
1:54 10 15 mph 1009.7mb 37f 53f
1:48 11 17 mph 1009.8mb 37f 52f
1:42 13 18 mph 1009.8mb 37f 52f
1:36 10 18 mph 1009.9mb 37f 51f
1:30 13 18 mph 1010mb 37f 51f
1:24 8 17 mph 1010.1mb 37f 51f
1:18 11 20 mph 1010.1mb 37f 50f
1:12 13 20 mph 1010.1mb 37f 49f
1:06 10 15 mph 1010.2mb 37f 49f
1:00 11 18 mph 1010.3mb 37f 49f
12:54 13 21 mph 1010.5mb 37f 48f
12:48 9 18 mph 1010.5mb 37f 48f
12:42 11 20 mph 1010.6mb 37f 47f
12:36 13 23 mph 1010.6mb 37f 47f
12:30 13 20 mph 1010.7mb 37f 47f
12:24 16 25 mph 1010.8mb 37f 47f
12:18 14 21 mph 1011mb 37f 47f
12:12 15 22 mph 1011.1mb 37f 47f
12:06 15 23 mph 1011.3mb 37f 47f
12:00 14 23 mph 1011.4mb 37f 47f
11:54 16 22 mph 1011.6mb 37f 47f
11:48 15 25 mph 1011.7mb 37f 47f
11:42 18 25 mph 1011.7mb 37f 47f
11:36 16 26 mph 1011.9mb 37f 47f
11:30 18 24 mph 1011.9mb 37f 47f
11:24 15 25 mph 1012mb 37f 48f
11:18 15 23 mph 1012.1mb 37f 47f
11:12 15 25 mph 1012.2mb 37f 48f
11:06 14 23 mph 1012.3mb 37f 48f
11:00 16 23 mph 1012.3mb 37f 48f
10:54 16 23 mph 1012.3mb 37f 48f
10:48 20 24 mph 1012.4mb 37f 47f
10:42 18 25 mph 1012.5mb 37f 48f
10:30 15 29 mph 1012.5mb 37f 48f
10:24 21 26 mph 1012.5mb 37f 48f
10:18 13 22 mph 1012.6mb 37f 48f
10:12 13 18 mph 1012.7mb 37f 48f
10:06 13 17 mph 1012.9mb 37f 48f
10:00 13 18 mph 1013mb 37f 48f
9:54 11 15 mph 1013.1mb 37f 48f
9:48 10 16 mph - - -
9:42 11 18 mph 1013.4mb 37f 48f
9:36 11 18 mph 1013.5mb 37f 49f
9:30 11 15 mph 1013.6mb 37f 49f
9:24 14 20 mph 1013.6mb 37f 49f
9:18 11 20 mph 1013.4mb 37f 50f
9:12 17 24 mph 1013.3mb 37f 50f
9:06 14 24 mph 1013.1mb 37f 50f
9:00 11 22 mph 1013.1mb 37f 50f
8:54 14 24 mph 1013.1mb 37f 49f
8:48 14 24 mph 1013.1mb 37f 49f
8:42 16 21 mph 1013.3mb 37f 48f
8:36 15 25 mph 1013.5mb 37f 48f
8:30 21 26 mph 1013.7mb 37f 48f
8:24 15 25 mph 1013.4mb 37f 48f
8:18 16 28 mph 1013.9mb 37f -
8:12 18 25 mph 1013.9mb 37f 49f
8:06 18 26 mph 1014mb 37f 49f
8:00 18 26 mph 1014.1mb 37f 49f
7:54 18 25 mph 1013.6mb 37f 49f
7:48 17 29 mph 1014mb 37f 49f
7:42 22 32 mph 1013.9mb 37f 49f
7:36 20 31 mph 1014mb 37f 49f
7:30 22 33 mph 1014mb 37f 49f
7:24 21 31 mph 1014mb 37f 48f
7:18 24 32 mph 1014.1mb 37f 48f
7:12 20 32 mph 1014.1mb 37f 48f
7:06 17 30 mph 1014.1mb 37f 48f
7:00 22 32 mph 1014.2mb 37f 49f
6:54 21 30 mph 1014.1mb 37f 49f
6:48 17 26 mph 1014.2mb 37f 48f
6:42 17 24 mph 1014.1mb 37f 48f
6:36 17 25 mph 1014.3mb 37f 48f
6:30 17 24 mph 1014.3mb 37f 47f
6:24 17 23 mph 1014.4mb 37f 47f
6:18 18 28 mph 1014.4mb 37f 47f
6:12 18 28 mph 1014.4mb 37f 47f
6:06 17 28 mph 1014.4mb 37f 47f
6:00 20 28 mph 1014.5mb 37f 47f
5:54 18 29 mph 1014.5mb 37f 47f
5:48  -  mph 1014.6mb 37f 47f
5:42 18 28 mph 1014.6mb 37f 47f
5:36 20 29 mph 1014.8mb 37f 46f
5:30 20 28 mph 1014.8mb 37f 47f
5:24 16 31 mph 1014.9mb 37f 47f
5:18 18 29 mph 1014.8mb 37f 47f
5:12 22 31 mph 1014.8mb 37f 47f
5:06 18 28 mph 1014.7mb 37f 47f
5:00 20 32 mph 1014.8mb 37f 47f
4:54 16 28 mph 1014.9mb 37f 47f
4:48 20 28 mph 1015mb 37f 47f
4:42 18 31 mph 1015.2mb 37f 47f
4:36 20 31 mph 1015.3mb 37f 47f
4:30 17 29 mph 1015.5mb 37f 47f
4:24 16 22 mph 1015.5mb 37f 47f
4:18 13 30 mph 1015.6mb 37f 47f
4:12 16 28 mph 1015.7mb 37f 47f
4:06 18 25 mph 1015.9mb 37f 47f
4:00 22 28 mph 1016mb 37f 47f
3:54 20 30 mph 1016.2mb 37f 47f
3:48 15 26 mph 1016.3mb 37f 47f
3:42 16 23 mph 1016.2mb 37f 47f
3:36 20 30 mph 1016.4mb 37f 47f
3:30 14 24 mph 1016.5mb 37f 46f
3:24 13 18 mph 1016.8mb 37f 46f
3:18 13 21 mph 1017.1mb - 46f
3:12 16 23 mph 1017.2mb - 46f
3:06 16 25 mph 1017.3mb - 46f
3:00 13 28 mph 1017.3mb 37f 46f
2:54 14 22 mph 1017.4mb 37f 46f
2:48 14 23 mph 1017.6mb 37f 46f
2:30 11 22 mph 1017.7mb 37f 46f
2:24 14 22 mph 1017.7mb 37f 47f
2:12 10 20 mph 1018.1mb 37f -
1:54 9 18 mph 1018.6mb 37f 46f